Airfield :
LOGIN :

Register | Disclaimer

   EN    FR    IT 

 










Legend :    VFR   Marginal VFR   IFR   Intensive IFR   Very Intensive IFR
Visi :
Ceiling :
>= 8 km
>= 3000ft
5 to 8 km
1000 to 3000 ft
1500m to 5 km
500 to 1000 ft
800 to 1500m
200 to 500 ft
< 800m
< 200 ft
Symbols :   Thunderstorms  Fog  Heavy snow  Heavy precipitations  Wind > 20 kt
SIGMETs :     Misc.  Thunderstorms  Icing  Turbulence  Mountain Waves  Volcanic Ashes






- Airport Elevation : 479 ft
- IATA code : DOL


LFRG - Deauville

CURRENT METAR :
  • 260730Z AUTO 17007KT 6000 OVC006 06/06 Q1014 TEMPO 4000 RADZ

EXPIRED METARs :
  • 260700Z AUTO 18007KT 6000 BKN006 OVC056 06/06 Q1014 TEMPO 4000 RADZ OVC003
  • 260630Z AUTO 17008KT 7000 NSC 06/06 Q1014 TEMPO 4000 RADZ BKN009
  • 260600Z AUTO 16008KT 5000 BR FEW006 SCT054 06/05 Q1014 TEMPO 2000 DZ BR OVC003
  • 260530Z AUTO 17009KT 6000 OVC006 06/05 Q1014 TEMPO 2000 DZ BR OVC003
  • 260500Z AUTO 18009KT 6000 OVC007 06/06 Q1014

TAF AMD TAF LFRG
Valid from the 26 at 06:00 until the 26 at 15:00 UTC


260614Z 2606/2615 18010KT 6000 BKN015
PROB40
TEMPO 2606/2608 2000 DZ BR OVC003
PROB40
TEMPO 2608/2615 4000 RADZ BKN009
BECMG 2612/2614 20015G25KT
ATIS : +33 2 31 65 65 36



MET'MAP, your aeronautical weather chart ! - Copyright ORBIFLY December 2007 - Disclaimer

ORBIFLY MET'MAP TEAM :

Programming & Development : Alexandra Zaïnal
Concept & original design : Baudouin d'Aumeries
Assistance for programming : Marc-Olivier Méhu
Technical & hardware support : Manuel Goepfert

Contact : metmap@orbifly.com




SOURCES & CREDITS :

   NOAA